KMGM

Montgomery Regional (Dannelly Field) Airport

Montgomery, Alabama, USA
KMGM 241940Z 2420/2518 15007G18KT 6SM SHRA VCTS BKN040CB BKN090 TEMPO 2420/2422 15015G25KT 2SM TSRA OVC040CB FM250100 11004KT P6SM BKN040 OVC250 FM250600 09006KT P6SM SCT025
Issued Valid From Valid To
Sep-24 @ 19:40 UTC
(19 minutes ago)
Sep-24 @ 20:00 UTC
(in a few seconds)
Sep-25 @ 18:00 UTC
(in 22 hours)
Sep-24 @ 20:00 to Sep-25 @ 01:00
KMGM 241940Z 2420/2518 15007G18KT 6SM SHRA VCTS BKN040CB BKN090
Wind Visibility Clouds Conditions
150° at 7 knots
 Gusting to 18 knots
6 miles
  • Broken at 4,000' AGL
  • Broken at 9,000' AGL
  • Rain
  • Area Thunderstorm
Temporary Sep-24 @ 20:00 to Sep-24 @ 22:00
TEMPO 2420/2422 15015G25KT 2SM TSRA OVC040CB
Wind Visibility Clouds Conditions
150° at 15 knots
 Gusting to 25 knots
2 miles
  • Overcast at 4,000' AGL
  • Thunderstorm
  • Rain
From Sep-25 @ 01:00 to Sep-25 @ 06:00
FM250100 11004KT P6SM BKN040 OVC250
Wind Visibility Clouds
110° at 4 knots Greater than 6 miles
  • Broken at 4,000' AGL
  • Overcast at 25,000' AGL
From Sep-25 @ 06:00 to Sep-25 @ 18:00
FM250600 09006KT P6SM SCT025
Wind Visibility Clouds
90° at 6 knots Greater than 6 miles
  • Scattered at 2,500' AGL
KMGM 241940Z 2420/2518 15007G18KT 6SM SHRA VCTS BKN040CB BKN090 TEMPO 2420/2422 15015G25KT 2SM TSRA OVC040CB FM250100 11004KT P6SM BKN040 OVC250 FM250600 09006KT P6SM SCT025
Issued Sep-24 @ 19:40 UTC
(19 minutes ago)
Valid From Sep-24 @ 20:00 UTC
(in a few seconds)
Valid To Sep-25 @ 18:00 UTC
(in 22 hours)
Sep-24 @ 20:00 - Sep-25 @ 01:00
Wind Visibility
150° at 7 knots
 Gusting to 18 knots
6 miles
Clouds
  • Broken at 4,000' AGL
  • Broken at 9,000' AGL
Conditions
  • Rain
  • Area Thunderstorm
Temporary Sep-24 @ 20:00 - Sep-24 @ 22:00
Wind Visibility
150° at 15 knots
 Gusting to 25 knots
2 miles
Clouds
  • Overcast at 4,000' AGL
Conditions
  • Thunderstorm
  • Rain
From Sep-25 @ 01:00 - Sep-25 @ 06:00
Wind Visibility
110° at 4 knots Greater than 6 miles
Clouds
  • Broken at 4,000' AGL
  • Overcast at 25,000' AGL
From Sep-25 @ 06:00 - Sep-25 @ 18:00
Wind Visibility
90° at 6 knots Greater than 6 miles
Clouds
  • Scattered at 2,500' AGL